Time;durP1;ratioP1;P1;durP2;ratioP2;P2;SDS_P1;SDS_P2;PMS_P1;PMS_P2;Temp;Humidity;BMP_temperature;BMP_pressure;BME280_temperature;BME280_humidity;BME280_pressure;Samples;Min_cycle;Max_cycle;Signal;HPM_P1;HPM_P2
2022/11/09 00:01:20;;;;;;;7.15;3.33;;;;;;;;;;5020855;28;20053;-69
2022/11/09 00:03:46;;;;;;;3.60;2.90;;;;;;;;;;5006963;28;20038;-69
2022/11/09 00:06:12;;;;;;;5.95;2.92;;;;;;;;;;5005710;28;20053;-69
2022/11/09 00:08:39;;;;;;;4.10;2.80;;;;;;;;;;5006216;28;20073;-69
2022/11/09 00:11:09;;;;;;;3.60;2.83;;;;;;;;;;5005104;28;20046;-69
2022/11/09 00:13:37;;;;;;;7.75;3.05;;;;;;;;;;5003946;28;20054;-69
2022/11/09 00:16:03;;;;;;;3.50;2.95;;;;;;;;;;5004042;28;20065;-69
2022/11/09 00:18:29;;;;;;;5.75;2.85;;;;;;;;;;5002565;28;20045;-69
2022/11/09 00:20:55;;;;;;;3.95;2.90;;;;;;;;;;5017269;28;20081;-69
2022/11/09 00:23:21;;;;;;;7.15;2.80;;;;;;;;;;5003138;28;20081;-69
2022/11/09 00:25:46;;;;;;;3.58;2.83;;;;;;;;;;5003147;28;20076;-69
2022/11/09 00:28:13;;;;;;;6.30;2.92;;;;;;;;;;5001244;28;20054;-69
2022/11/09 00:30:39;;;;;;;2.80;2.60;;;;;;;;;;5002696;28;20046;-69
2022/11/09 00:33:05;;;;;;;3.67;2.80;;;;;;;;;;5002686;28;20046;-69
2022/11/09 00:35:31;;;;;;;4.93;3.03;;;;;;;;;;5017892;28;20493;-69
2022/11/09 00:37:56;;;;;;;3.40;2.80;;;;;;;;;;5018056;28;20050;-69
2022/11/09 00:40:22;;;;;;;5.53;2.83;;;;;;;;;;5001377;28;20125;-69
2022/11/09 00:42:47;;;;;;;6.85;2.85;;;;;;;;;;5002755;28;20144;-69
2022/11/09 00:45:14;;;;;;;4.68;3.20;;;;;;;;;;5002113;28;20053;-68
2022/11/09 00:47:40;;;;;;;6.05;3.17;;;;;;;;;;5017825;28;20045;-69
2022/11/09 00:50:06;;;;;;;3.90;3.13;;;;;;;;;;5002364;28;20054;-68
2022/11/09 00:52:31;;;;;;;6.22;3.00;;;;;;;;;;5001691;28;20052;-68
2022/11/09 00:54:57;;;;;;;6.47;3.30;;;;;;;;;;4999748;28;20046;-69
2022/11/09 00:57:22;;;;;;;6.30;3.20;;;;;;;;;;5017523;28;20045;-68
2022/11/09 00:59:48;;;;;;;5.05;3.20;;;;;;;;;;5001613;28;20383;-68
2022/11/09 01:02:13;;;;;;;9.25;3.30;;;;;;;;;;4999711;28;20108;-69
2022/11/09 01:04:39;;;;;;;6.45;3.00;;;;;;;;;;5017143;28;20406;-69
2022/11/09 01:07:06;;;;;;;4.38;3.03;;;;;;;;;;5000118;28;20359;-69
2022/11/09 01:09:31;;;;;;;3.42;2.42;;;;;;;;;;4996242;28;20046;-69
2022/11/09 01:11:57;;;;;;;5.40;3.20;;;;;;;;;;5017067;28;20105;-69
2022/11/09 01:14:23;;;;;;;5.97;3.00;;;;;;;;;;5000074;28;20046;-69
2022/11/09 01:16:48;;;;;;;3.75;2.75;;;;;;;;;;5000678;28;20433;-69
2022/11/09 01:19:14;;;;;;;5.93;3.38;;;;;;;;;;5016307;28;20061;-69
2022/11/09 01:21:40;;;;;;;6.60;2.85;;;;;;;;;;5001852;28;20034;-69
2022/11/09 01:24:05;;;;;;;3.80;3.05;;;;;;;;;;4995120;28;20049;-70
2022/11/09 01:26:32;;;;;;;8.07;2.75;;;;;;;;;;5001624;28;20093;-69
2022/11/09 01:28:58;;;;;;;3.25;2.63;;;;;;;;;;4999619;28;20097;-69
2022/11/09 01:31:24;;;;;;;6.35;2.60;;;;;;;;;;4982358;28;20054;-69
2022/11/09 01:33:49;;;;;;;3.60;2.60;;;;;;;;;;5000111;28;20045;-69
2022/11/09 01:36:20;;;;;;;4.00;2.80;;;;;;;;;;4999231;28;20065;-69
2022/11/09 01:38:46;;;;;;;4.28;2.95;;;;;;;;;;4998804;28;20096;-69
2022/11/09 01:41:27;;;;;;;16.48;2.53;;;;;;;;;;4998071;28;20050;-69
2022/11/09 01:44:16;;;;;;;5.20;2.95;;;;;;;;;;5015897;28;20041;-69
2022/11/09 01:46:56;;;;;;;4.03;2.78;;;;;;;;;;5000057;28;20054;-69
2022/11/09 01:49:27;;;;;;;3.47;2.60;;;;;;;;;;4952620;28;20508;-69
2022/11/09 01:51:58;;;;;;;4.78;3.25;;;;;;;;;;5001500;28;20052;-69
2022/11/09 01:54:33;;;;;;;3.13;2.83;;;;;;;;;;5000458;28;20057;-69
2022/11/09 01:57:05;;;;;;;3.35;2.85;;;;;;;;;;4983155;28;20525;-69
2022/11/09 01:59:35;;;;;;;3.33;2.85;;;;;;;;;;5016397;28;20096;-68
2022/11/09 02:02:01;;;;;;;2.50;2.30;;;;;;;;;;4999678;28;20049;-69
2022/11/09 02:04:35;;;;;;;3.30;2.80;;;;;;;;;;4998908;28;20042;-69
2022/11/09 02:07:01;;;;;;;3.60;2.42;;;;;;;;;;5015477;28;20061;-69
2022/11/09 02:09:35;;;;;;;3.55;2.22;;;;;;;;;;5001232;28;20042;-70
2022/11/09 02:12:00;;;;;;;3.58;2.67;;;;;;;;;;5015984;28;20065;-69
2022/11/09 02:14:28;;;;;;;4.05;2.33;;;;;;;;;;5015954;28;20089;-68
2022/11/09 02:16:54;;;;;;;5.88;3.15;;;;;;;;;;4998667;28;20044;-69
2022/11/09 02:19:19;;;;;;;4.40;2.67;;;;;;;;;;5015648;28;20053;-68
2022/11/09 02:21:46;;;;;;;5.15;2.67;;;;;;;;;;4998613;28;20137;-69
2022/11/09 02:24:11;;;;;;;4.00;2.70;;;;;;;;;;5001007;28;20133;-69
2022/11/09 02:26:50;;;;;;;4.30;2.67;;;;;;;;;;4999727;28;20056;-68
2022/11/09 02:29:38;;;;;;;5.75;2.38;;;;;;;;;;4997940;28;20410;-69
2022/11/09 02:32:10;;;;;;;3.88;2.42;;;;;;;;;;4986480;28;20138;-69
2022/11/09 02:34:35;;;;;;;;;;;;;;;;;;4999822;28;20141;-68
2022/11/09 02:37:01;;;;;;;2.83;2.33;;;;;;;;;;4982655;28;19976;-68
2022/11/09 02:39:27;;;;;;;3.35;2.67;;;;;;;;;;4989847;28;20409;-69
2022/11/09 02:41:59;;;;;;;4.93;2.30;;;;;;;;;;5000467;28;20041;-69
2022/11/09 02:44:34;;;;;;;2.88;2.35;;;;;;;;;;4999169;28;20124;-68
2022/11/09 02:46:59;;;;;;;3.50;2.65;;;;;;;;;;5000280;28;20038;-68
2022/11/09 02:49:26;;;;;;;3.03;2.13;;;;;;;;;;4991846;28;20065;-68
2022/11/09 02:51:51;;;;;;;3.42;2.60;;;;;;;;;;5021819;28;20034;-68
2022/11/09 02:54:17;;;;;;;6.18;2.45;;;;;;;;;;5022101;28;20064;-69
2022/11/09 02:56:42;;;;;;;7.18;2.70;;;;;;;;;;5018266;28;20169;-68
2022/11/09 02:59:08;;;;;;;7.55;2.97;;;;;;;;;;5005760;28;20046;-69
2022/11/09 03:01:34;;;;;;;7.57;2.42;;;;;;;;;;5005240;28;20045;-69
2022/11/09 03:04:00;;;;;;;4.43;3.17;;;;;;;;;;5021934;28;20041;-69
2022/11/09 03:06:33;;;;;;;3.75;2.90;;;;;;;;;;5004826;28;20069;-69
2022/11/09 03:09:03;;;;;;;4.70;3.13;;;;;;;;;;5005068;28;20433;-68
2022/11/09 03:11:28;;;;;;;3.33;2.85;;;;;;;;;;5020574;28;20045;-69
2022/11/09 03:13:54;;;;;;;3.80;2.72;;;;;;;;;;5022137;28;20072;-69
2022/11/09 03:16:20;;;;;;;4.43;2.45;;;;;;;;;;5021831;28;20044;-69
2022/11/09 03:18:45;;;;;;;4.93;2.67;;;;;;;;;;5007014;28;20061;-68
2022/11/09 03:21:11;;;;;;;3.83;2.53;;;;;;;;;;5020281;28;20056;-69
2022/11/09 03:23:36;;;;;;;4.28;2.53;;;;;;;;;;5006832;28;20512;-69
2022/11/09 03:26:03;;;;;;;2.97;2.67;;;;;;;;;;5021823;28;20160;-68
2022/11/09 03:28:28;;;;;;;4.57;3.10;;;;;;;;;;5021950;28;20126;-69
2022/11/09 03:30:55;;;;;;;3.72;3.10;;;;;;;;;;5021205;28;20131;-68
2022/11/09 03:33:20;;;;;;;7.05;3.25;;;;;;;;;;4982382;28;20518;-69
2022/11/09 03:35:46;;;;;;;7.35;2.90;;;;;;;;;;5005620;28;20735;-69
2022/11/09 03:38:16;;;;;;;3.70;3.08;;;;;;;;;;5005404;28;20098;-68
2022/11/09 03:40:41;;;;;;;3.88;2.83;;;;;;;;;;5004923;28;20046;-68
2022/11/09 03:43:07;;;;;;;6.72;2.88;;;;;;;;;;5021044;28;20053;-69
2022/11/09 03:45:33;;;;;;;5.45;2.90;;;;;;;;;;5004642;28;20091;-69
2022/11/09 03:48:01;;;;;;;6.90;3.08;;;;;;;;;;5006933;28;20103;-69
2022/11/09 03:50:28;;;;;;;6.68;3.10;;;;;;;;;;5006482;28;20053;-68
2022/11/09 03:52:54;;;;;;;4.85;2.88;;;;;;;;;;5006103;28;20136;-68
2022/11/09 03:55:19;;;;;;;3.55;3.00;;;;;;;;;;5006177;28;20060;-69
2022/11/09 03:57:45;;;;;;;8.32;2.90;;;;;;;;;;5005113;28;20073;-69
2022/11/09 04:00:13;;;;;;;3.85;2.80;;;;;;;;;;5006441;28;20045;-69
2022/11/09 04:02:39;;;;;;;5.13;2.58;;;;;;;;;;5002846;28;20064;-69
2022/11/09 04:05:05;;;;;;;3.50;2.60;;;;;;;;;;5017593;28;20041;-69
2022/11/09 04:07:31;;;;;;;4.75;2.60;;;;;;;;;;5002767;28;20041;-69
2022/11/09 04:09:56;;;;;;;4.60;2.65;;;;;;;;;;5003422;28;20363;-69
2022/11/09 04:12:22;;;;;;;3.80;2.78;;;;;;;;;;5003070;28;20185;-69
2022/11/09 04:14:47;;;;;;;3.25;2.78;;;;;;;;;;5000324;28;20537;-69
2022/11/09 04:17:13;;;;;;;2.80;2.33;;;;;;;;;;5001846;28;20383;-69
2022/11/09 04:19:38;;;;;;;4.05;2.75;;;;;;;;;;5003211;28;20457;-69
2022/11/09 04:22:04;;;;;;;2.60;2.35;;;;;;;;;;5001434;28;20050;-69
2022/11/09 04:24:29;;;;;;;7.18;2.72;;;;;;;;;;5003154;28;20133;-69
2022/11/09 04:26:55;;;;;;;3.67;2.72;;;;;;;;;;5002225;28;20046;-69
2022/11/09 04:29:20;;;;;;;4.35;2.50;;;;;;;;;;5000022;28;20049;-69
2022/11/09 04:31:48;;;;;;;3.95;2.75;;;;;;;;;;5002641;28;20160;-69
2022/11/09 04:34:15;;;;;;;2.85;2.30;;;;;;;;;;5002969;28;20133;-69
2022/11/09 04:36:40;;;;;;;3.92;2.22;;;;;;;;;;5002710;28;20049;-69
2022/11/09 04:39:06;;;;;;;3.22;2.13;;;;;;;;;;5001740;28;20064;-68
2022/11/09 04:41:31;;;;;;;3.28;2.40;;;;;;;;;;5002570;28;20108;-68
2022/11/09 04:43:57;;;;;;;4.10;2.35;;;;;;;;;;5002559;28;20046;-69
2022/11/09 04:46:22;;;;;;;4.43;2.38;;;;;;;;;;4997227;28;20050;-68
2022/11/09 04:48:48;;;;;;;3.55;2.35;;;;;;;;;;5002785;28;20378;-68
2022/11/09 04:51:13;;;;;;;3.15;2.38;;;;;;;;;;5001450;28;20046;-67
2022/11/09 04:53:39;;;;;;;2.33;2.13;;;;;;;;;;5002756;28;20478;-68
2022/11/09 04:56:06;;;;;;;3.88;2.33;;;;;;;;;;5001115;28;20053;-67
2022/11/09 04:58:31;;;;;;;4.22;2.35;;;;;;;;;;5001931;28;20041;-67
2022/11/09 05:01:05;;;;;;;5.05;2.30;;;;;;;;;;5000932;28;20049;-67
2022/11/09 05:03:30;;;;;;;6.18;2.17;;;;;;;;;;5000529;28;20621;-68
2022/11/09 05:05:56;;;;;;;2.40;2.20;;;;;;;;;;4999302;28;20038;-67
2022/11/09 05:08:22;;;;;;;9.88;6.25;;;;;;;;;;5000258;28;20041;-68
2022/11/09 05:10:47;;;;;;;5.43;2.60;;;;;;;;;;5001453;28;20107;-68
2022/11/09 05:13:13;;;;;;;6.72;2.50;;;;;;;;;;4999751;28;20076;-68
2022/11/09 05:15:39;;;;;;;3.42;2.53;;;;;;;;;;5003306;28;20046;-68
2022/11/09 05:18:06;;;;;;;2.63;2.10;;;;;;;;;;5001192;28;20132;-68
2022/11/09 05:20:32;;;;;;;8.90;2.70;;;;;;;;;;5001590;28;20050;-68
2022/11/09 05:25:44;;;;;;;3.85;2.60;;;;;;;;;;5001367;28;20751;-67
2022/11/09 05:28:10;;;;;;;4.88;2.55;;;;;;;;;;5001048;28;20084;-68
2022/11/09 05:30:36;;;;;;;3.63;2.38;;;;;;;;;;5001543;28;20046;-68
2022/11/09 05:33:01;;;;;;;5.40;2.38;;;;;;;;;;5001550;28;20124;-68
2022/11/09 05:35:27;;;;;;;4.53;2.63;;;;;;;;;;4999871;28;20053;-68
2022/11/09 05:37:52;;;;;;;2.85;2.50;;;;;;;;;;5001676;28;20041;-68
2022/11/09 05:40:19;;;;;;;6.32;2.60;;;;;;;;;;5001777;28;20151;-68
2022/11/09 05:42:45;;;;;;;4.63;2.72;;;;;;;;;;4989508;28;20038;-68
2022/11/09 05:45:13;;;;;;;5.18;2.67;;;;;;;;;;4990228;28;20065;-68
2022/11/09 05:47:42;;;;;;;4.47;2.50;;;;;;;;;;5000629;28;20469;-68
2022/11/09 05:50:10;;;;;;;4.78;2.90;;;;;;;;;;5000743;28;20054;-68
2022/11/09 05:52:35;;;;;;;3.17;2.70;;;;;;;;;;5001348;28;20053;-68
2022/11/09 05:55:01;;;;;;;5.80;2.70;;;;;;;;;;5001343;28;20041;-68
2022/11/09 05:57:27;;;;;;;4.18;2.50;;;;;;;;;;5000680;28;20150;-68
2022/11/09 05:59:53;;;;;;;2.50;2.30;;;;;;;;;;5001846;28;20558;-68
2022/11/09 06:02:18;;;;;;;3.90;2.67;;;;;;;;;;4999442;28;20147;-68
2022/11/09 06:04:44;;;;;;;3.88;2.67;;;;;;;;;;5001787;28;20477;-68
2022/11/09 06:07:09;;;;;;;3.47;2.50;;;;;;;;;;5000300;28;20042;-68
2022/11/09 06:09:34;;;;;;;5.40;2.40;;;;;;;;;;5001267;28;20500;-67
2022/11/09 06:12:00;;;;;;;4.55;2.33;;;;;;;;;;5001517;28;20045;-68
2022/11/09 06:14:25;;;;;;;3.35;2.47;;;;;;;;;;5001556;28;20037;-68
2022/11/09 06:16:51;;;;;;;4.18;2.40;;;;;;;;;;5003634;28;20038;-68
2022/11/09 06:19:16;;;;;;;6.00;2.30;;;;;;;;;;5002023;28;20729;-68
2022/11/09 06:21:42;;;;;;;3.95;1.90;;;;;;;;;;5000982;28;20430;-68
2022/11/09 06:24:08;;;;;;;3.10;1.85;;;;;;;;;;5001915;28;20957;-68
2022/11/09 06:26:33;;;;;;;2.85;2.10;;;;;;;;;;5000432;28;20057;-68
2022/11/09 06:28:59;;;;;;;2.30;1.90;;;;;;;;;;4999017;28;20041;-68
2022/11/09 06:31:25;;;;;;;4.68;1.70;;;;;;;;;;5014523;28;20050;-68
2022/11/09 06:33:51;;;;;;;1.77;1.67;;;;;;;;;;5000365;28;20498;-68
2022/11/09 06:36:17;;;;;;;1.92;1.70;;;;;;;;;;5014785;28;20112;-69
2022/11/09 06:38:42;;;;;;;3.28;1.80;;;;;;;;;;5001190;28;20049;-68
2022/11/09 06:41:09;;;;;;;2.53;1.90;;;;;;;;;;4999126;28;20049;-68
2022/11/09 06:43:35;;;;;;;3.47;2.00;;;;;;;;;;5000970;28;20160;-68
2022/11/09 06:46:04;;;;;;;2.78;1.95;;;;;;;;;;5000718;28;20046;-69
2022/11/09 06:48:29;;;;;;;2.20;1.85;;;;;;;;;;5000795;28;20654;-68
2022/11/09 06:50:59;;;;;;;3.28;1.65;;;;;;;;;;4999293;28;20156;-68
2022/11/09 06:53:26;;;;;;;2.50;1.73;;;;;;;;;;4993716;28;20082;-68
2022/11/09 06:55:52;;;;;;;2.00;1.75;;;;;;;;;;4990096;28;20115;-68
2022/11/09 06:58:18;;;;;;;2.60;1.90;;;;;;;;;;5000438;28;20414;-68
2022/11/09 07:00:44;;;;;;;6.07;2.10;;;;;;;;;;5000444;28;20057;-68
2022/11/09 07:03:18;;;;;;;4.90;2.30;;;;;;;;;;4999066;28;20042;-68
2022/11/09 07:05:43;;;;;;;3.95;2.00;;;;;;;;;;5000748;28;20052;-68
2022/11/09 07:08:09;;;;;;;6.20;2.60;;;;;;;;;;5000721;28;20414;-68
2022/11/09 07:10:35;;;;;;;3.33;2.22;;;;;;;;;;5000680;28;20065;-68
2022/11/09 07:13:02;;;;;;;3.85;2.20;;;;;;;;;;4998653;28;20491;-68
2022/11/09 07:15:27;;;;;;;2.40;1.52;;;;;;;;;;5000272;28;20046;-71
2022/11/09 07:17:56;;;;;;;2.20;1.70;;;;;;;;;;4999984;28;20045;-68
2022/11/09 07:20:21;;;;;;;5.78;1.95;;;;;;;;;;4999912;28;20053;-68
2022/11/09 07:22:48;;;;;;;2.90;1.73;;;;;;;;;;5000573;28;20042;-68
2022/11/09 07:25:13;;;;;;;7.47;2.00;;;;;;;;;;4999124;28;20069;-68
2022/11/09 07:27:39;;;;;;;3.35;2.00;;;;;;;;;;5000552;28;20572;-68
2022/11/09 07:30:05;;;;;;;4.15;1.95;;;;;;;;;;4999293;28;20052;-68
2022/11/09 07:32:35;;;;;;;5.18;2.10;;;;;;;;;;4999371;28;20042;-68
2022/11/09 07:35:03;;;;;;;1.73;1.63;;;;;;;;;;4998548;28;20048;-69
2022/11/09 07:37:29;;;;;;;4.13;1.85;;;;;;;;;;4999139;28;20045;-69
2022/11/09 07:39:54;;;;;;;2.10;1.60;;;;;;;;;;5003646;28;20073;-68
2022/11/09 07:42:20;;;;;;;1.70;1.60;;;;;;;;;;5003570;28;20097;-68
2022/11/09 07:44:45;;;;;;;2.30;1.80;;;;;;;;;;5002942;28;20050;-71
2022/11/09 07:47:11;;;;;;;2.70;1.65;;;;;;;;;;4999814;28;20050;-69
2022/11/09 07:49:36;;;;;;;2.53;1.40;;;;;;;;;;5017620;28;20080;-68
2022/11/09 07:52:02;;;;;;;2.00;1.40;;;;;;;;;;5002711;28;20117;-68
2022/11/09 07:54:27;;;;;;;1.30;1.20;;;;;;;;;;5003800;28;20060;-68
2022/11/09 07:56:53;;;;;;;1.65;1.30;;;;;;;;;;5002507;28;20069;-71
2022/11/09 07:59:18;;;;;;;1.83;1.38;;;;;;;;;;5003710;28;21100;-68
2022/11/09 08:01:45;;;;;;;1.38;1.27;;;;;;;;;;5003672;28;20120;-69
2022/11/09 08:04:11;;;;;;;4.43;1.23;;;;;;;;;;5003585;28;20437;-68
2022/11/09 08:06:36;;;;;;;4.00;1.00;;;;;;;;;;5003573;28;20054;-71
2022/11/09 08:09:02;;;;;;;2.50;1.25;;;;;;;;;;5002273;28;20041;-70
2022/11/09 08:11:28;;;;;;;2.67;1.17;;;;;;;;;;5002839;28;20058;-69
2022/11/09 08:13:54;;;;;;;1.42;1.20;;;;;;;;;;4997498;28;20041;-68
2022/11/09 08:16:19;;;;;;;3.65;1.40;;;;;;;;;;5001435;28;20029;-69
2022/11/09 08:18:45;;;;;;;1.38;1.25;;;;;;;;;;5001686;28;20384;-70
2022/11/09 08:21:10;;;;;;;3.03;1.27;;;;;;;;;;5000831;28;20053;-69
2022/11/09 08:23:36;;;;;;;2.58;1.27;;;;;;;;;;5003216;28;20123;-70
2022/11/09 08:26:04;;;;;;;1.65;1.17;;;;;;;;;;5003228;28;20042;-68
2022/11/09 08:28:30;;;;;;;5.82;1.33;;;;;;;;;;5002488;28;20057;-70
2022/11/09 08:30:58;;;;;;;1.20;1.10;;;;;;;;;;5001537;28;20057;-68
2022/11/09 08:33:26;;;;;;;2.10;1.10;;;;;;;;;;5002994;28;20084;-69
2022/11/09 08:35:52;;;;;;;0.98;0.98;;;;;;;;;;5003092;28;20045;-70
2022/11/09 08:38:17;;;;;;;3.58;1.30;;;;;;;;;;5002757;28;20041;-69
2022/11/09 08:40:43;;;;;;;1.38;1.10;;;;;;;;;;5001711;28;20073;-68
2022/11/09 08:43:10;;;;;;;2.58;0.95;;;;;;;;;;4997194;28;21017;-68
2022/11/09 08:45:36;;;;;;;4.82;1.10;;;;;;;;;;5002873;28;20739;-68
2022/11/09 08:48:02;;;;;;;1.35;1.10;;;;;;;;;;5001954;28;20045;-70
2022/11/09 08:50:29;;;;;;;2.35;1.05;;;;;;;;;;5002753;28;20045;-68
2022/11/09 08:52:55;;;;;;;7.28;1.60;;;;;;;;;;4995952;28;20136;-68
2022/11/09 08:55:22;;;;;;;1.85;1.10;;;;;;;;;;5002727;28;20187;-68
2022/11/09 08:57:47;;;;;;;1.20;1.10;;;;;;;;;;5002771;28;20049;-69
2022/11/09 09:00:14;;;;;;;2.03;1.17;;;;;;;;;;5000909;28;20045;-69
2022/11/09 09:02:40;;;;;;;2.00;1.15;;;;;;;;;;5001772;28;20053;-70
2022/11/09 09:05:05;;;;;;;3.83;1.00;;;;;;;;;;5002272;28;20050;-70
2022/11/09 09:07:31;;;;;;;1.33;1.10;;;;;;;;;;5002442;28;20506;-70
2022/11/09 09:09:56;;;;;;;2.47;1.40;;;;;;;;;;5002556;28;20045;-71
2022/11/09 09:12:22;;;;;;;1.30;1.20;;;;;;;;;;5002742;28;20057;-70
2022/11/09 09:14:48;;;;;;;3.47;0.90;;;;;;;;;;5001390;28;20038;-70
2022/11/09 09:17:13;;;;;;;2.60;1.52;;;;;;;;;;5001075;28;20073;-70
2022/11/09 09:19:39;;;;;;;3.38;1.23;;;;;;;;;;5002389;28;20081;-70
2022/11/09 09:22:04;;;;;;;1.85;1.20;;;;;;;;;;5001890;28;20038;-70
2022/11/09 09:24:30;;;;;;;1.20;1.10;;;;;;;;;;5001686;28;20451;-70
2022/11/09 09:26:55;;;;;;;2.97;1.33;;;;;;;;;;5000964;28;20053;-70
2022/11/09 09:29:21;;;;;;;6.28;2.05;;;;;;;;;;5001998;28;20141;-70
2022/11/09 09:31:46;;;;;;;2.03;1.75;;;;;;;;;;5001405;28;20042;-70
2022/11/09 09:34:12;;;;;;;3.20;1.80;;;;;;;;;;5001746;28;20141;-70
2022/11/09 09:36:38;;;;;;;8.43;1.70;;;;;;;;;;5015617;28;20130;-70
2022/11/09 09:39:03;;;;;;;2.75;1.77;;;;;;;;;;5001870;28;20049;-71
2022/11/09 09:41:45;;;;;;;2.63;1.50;;;;;;;;;;5002038;28;20411;-70
2022/11/09 09:44:44;;;;;;;2.88;1.90;;;;;;;;;;5001414;28;20119;-70
2022/11/09 09:47:11;;;;;;;3.55;1.50;;;;;;;;;;4999812;28;20064;-70
2022/11/09 09:49:42;;;;;;;4.32;2.10;;;;;;;;;;5001274;28;20041;-71
2022/11/09 09:52:28;;;;;;;6.78;2.05;;;;;;;;;;5000830;28;20054;-71
2022/11/09 09:55:29;;;;;;;4.22;1.88;;;;;;;;;;5001011;28;20034;-70
2022/11/09 09:58:03;;;;;;;7.00;1.83;;;;;;;;;;4998176;28;20042;-70
2022/11/09 10:00:32;;;;;;;2.38;2.08;;;;;;;;;;5001863;28;20054;-71
2022/11/09 10:02:59;;;;;;;1.73;1.60;;;;;;;;;;5002216;28;20482;-71
2022/11/09 10:05:47;;;;;;;2.00;1.60;;;;;;;;;;5002064;28;20103;-70
2022/11/09 10:08:27;;;;;;;3.13;1.60;;;;;;;;;;5002054;28;20060;-69
2022/11/09 10:10:59;;;;;;;4.20;2.00;;;;;;;;;;5002931;28;20041;-72
2022/11/09 10:13:50;;;;;;;5.95;1.42;;;;;;;;;;5000441;28;20057;-70
2022/11/09 10:16:39;;;;;;;2.50;1.40;;;;;;;;;;5003421;28;20050;-70
2022/11/09 10:19:38;;;;;;;4.15;1.90;;;;;;;;;;5001117;28;20053;-72
2022/11/09 10:22:22;;;;;;;2.13;1.92;;;;;;;;;;5005001;28;20061;-69
2022/11/09 10:24:50;;;;;;;2.60;1.58;;;;;;;;;;5004876;28;20046;-69
2022/11/09 10:27:39;;;;;;;1.75;1.30;;;;;;;;;;4992208;28;20440;-70
2022/11/09 10:30:16;;;;;;;2.08;1.10;;;;;;;;;;5001691;28;20054;-70
2022/11/09 10:32:45;;;;;;;1.60;1.23;;;;;;;;;;5000685;28;20220;-69
2022/11/09 10:35:19;;;;;;;1.33;1.20;;;;;;;;;;5000598;28;20065;-69
2022/11/09 10:37:50;;;;;;;7.22;1.30;;;;;;;;;;5000598;28;20973;-71
2022/11/09 10:40:19;;;;;;;4.30;1.45;;;;;;;;;;5000120;28;20057;-70
2022/11/09 10:43:12;;;;;;;3.53;1.30;;;;;;;;;;5000274;28;20057;-68
2022/11/09 10:46:04;;;;;;;2.60;1.27;;;;;;;;;;5000455;28;20052;-68
2022/11/09 10:48:48;;;;;;;1.83;1.30;;;;;;;;;;5000262;28;20071;-69
2022/11/09 10:51:46;;;;;;;2.30;1.30;;;;;;;;;;4997044;28;20568;-69
2022/11/09 10:54:36;;;;;;;7.22;1.60;;;;;;;;;;5000855;28;20088;-68
2022/11/09 10:57:23;;;;;;;3.47;1.38;;;;;;;;;;5000188;28;20057;-67
2022/11/09 11:00:19;;;;;;;1.45;1.35;;;;;;;;;;5000747;28;20406;-68
2022/11/09 11:03:16;;;;;;;2.90;1.30;;;;;;;;;;4999255;28;20560;-67
2022/11/09 11:06:20;;;;;;;3.17;1.52;;;;;;;;;;5000887;28;20048;-67
2022/11/09 11:09:04;;;;;;;2.22;1.20;;;;;;;;;;4996150;28;20072;-69
2022/11/09 11:12:12;;;;;;;1.70;1.15;;;;;;;;;;5002451;28;20061;-67
2022/11/09 11:14:57;;;;;;;4.22;1.33;;;;;;;;;;5003137;28;20099;-68
2022/11/09 11:17:41;;;;;;;1.45;1.08;;;;;;;;;;5004214;28;20119;-67
2022/11/09 11:20:36;;;;;;;2.55;1.05;;;;;;;;;;5004608;28;20157;-68
2022/11/09 11:23:23;;;;;;;1.67;1.15;;;;;;;;;;5004150;28;20076;-68
2022/11/09 11:26:23;;;;;;;5.20;1.60;;;;;;;;;;5003722;28;20533;-68
2022/11/09 11:29:21;;;;;;;1.95;1.25;;;;;;;;;;5004057;28;20167;-68
2022/11/09 11:32:12;;;;;;;3.63;1.10;;;;;;;;;;5004475;28;20497;-68
2022/11/09 11:34:57;;;;;;;1.92;1.30;;;;;;;;;;5005461;28;20478;-68
2022/11/09 11:37:59;;;;;;;0.90;0.90;;;;;;;;;;5006094;28;20119;-69
2022/11/09 11:41:13;;;;;;;1.63;1.17;;;;;;;;;;5008422;28;20048;-68
2022/11/09 11:44:25;;;;;;;3.00;1.23;;;;;;;;;;5001349;28;20124;-71
2022/11/09 11:47:19;;;;;;;1.35;1.05;;;;;;;;;;5002187;28;20065;-68
2022/11/09 11:50:20;;;;;;;2.58;1.25;;;;;;;;;;5004481;28;20120;-69
2022/11/09 11:53:23;;;;;;;4.65;1.42;;;;;;;;;;5003121;28;20052;-70
2022/11/09 11:56:19;;;;;;;1.30;1.20;;;;;;;;;;5015883;28;20056;-71
2022/11/09 11:59:18;;;;;;;3.13;1.40;;;;;;;;;;5001902;28;20128;-71
2022/11/09 12:02:21;;;;;;;1.23;1.10;;;;;;;;;;5003778;28;20053;-69
2022/11/09 12:05:49;;;;;;;1.75;1.30;;;;;;;;;;5002346;28;20057;-70
2022/11/09 12:08:54;;;;;;;3.13;1.33;;;;;;;;;;5002125;28;20073;-69
2022/11/09 12:11:57;;;;;;;1.25;1.15;;;;;;;;;;5000478;28;20107;-69
2022/11/09 12:14:45;;;;;;;1.85;1.50;;;;;;;;;;5003584;28;20100;-71
2022/11/09 12:17:36;;;;;;;5.13;1.30;;;;;;;;;;5000543;28;20414;-70
2022/11/09 12:20:25;;;;;;;1.20;1.10;;;;;;;;;;5004441;28;20053;-70
2022/11/09 12:23:15;;;;;;;4.25;1.73;;;;;;;;;;5003055;28;20048;-71
2022/11/09 12:26:11;;;;;;;1.40;1.30;;;;;;;;;;5004391;28;20088;-70
2022/11/09 12:29:22;;;;;;;1.67;1.40;;;;;;;;;;5001849;28;20056;-70
2022/11/09 12:32:20;;;;;;;1.40;1.30;;;;;;;;;;5001925;28;20593;-69
2022/11/09 12:35:07;;;;;;;2.97;1.33;;;;;;;;;;5000778;28;20061;-68
2022/11/09 12:38:09;;;;;;;2.40;1.48;;;;;;;;;;5002692;28;20048;-69
2022/11/09 12:41:01;;;;;;;1.83;1.30;;;;;;;;;;5001589;28;20084;-69
2022/11/09 12:43:54;;;;;;;2.15;1.15;;;;;;;;;;4999243;28;20088;-69
2022/11/09 12:46:45;;;;;;;1.70;1.10;;;;;;;;;;5001709;28;20057;-69
2022/11/09 12:49:35;;;;;;;3.60;1.20;;;;;;;;;;4999999;28;20568;-70
2022/11/09 12:52:26;;;;;;;3.67;1.33;;;;;;;;;;5004460;28;20068;-70
2022/11/09 12:55:15;;;;;;;1.63;1.20;;;;;;;;;;5003790;28;20064;-70
2022/11/09 12:57:59;;;;;;;2.03;1.27;;;;;;;;;;5006115;28;20053;-69
2022/11/09 13:00:44;;;;;;;2.25;1.40;;;;;;;;;;5007617;28;20076;-69
2022/11/09 13:03:31;;;;;;;3.35;1.38;;;;;;;;;;5003234;28;20057;-69
2022/11/09 13:06:29;;;;;;;1.70;1.23;;;;;;;;;;5007754;28;20096;-69
2022/11/09 13:09:22;;;;;;;2.35;1.45;;;;;;;;;;5006610;28;20052;-69
2022/11/09 13:12:30;;;;;;;6.85;1.50;;;;;;;;;;5007513;28;20055;-70
2022/11/09 13:15:26;;;;;;;3.30;1.30;;;;;;;;;;5001313;28;20493;-70
2022/11/09 13:18:45;;;;;;;3.83;1.77;;;;;;;;;;5003081;28;20518;-70
2022/11/09 13:21:33;;;;;;;2.22;1.88;;;;;;;;;;4997952;28;20153;-69
2022/11/09 13:24:29;;;;;;;3.35;1.80;;;;;;;;;;4999709;28;20061;-70
2022/11/09 13:27:31;;;;;;;2.20;1.63;;;;;;;;;;4999104;28;20088;-70
2022/11/09 13:30:24;;;;;;;;;;;;;;;;;;5001693;28;20064;-70
2022/11/09 13:33:17;;;;;;;3.33;2.00;;;;;;;;;;5000678;28;19991;-70
2022/11/09 13:36:07;;;;;;;3.10;2.22;;;;;;;;;;5001832;28;20169;-70
2022/11/09 13:39:30;;;;;;;3.22;2.20;;;;;;;;;;5001891;28;20104;-70
2022/11/09 13:42:34;;;;;;;4.15;2.20;;;;;;;;;;4998771;28;20064;-69
2022/11/09 13:45:41;;;;;;;3.03;2.25;;;;;;;;;;5000702;28;20477;-69
2022/11/09 13:48:39;;;;;;;2.90;2.08;;;;;;;;;;5000445;28;20069;-69
2022/11/09 13:51:42;;;;;;;3.72;2.10;;;;;;;;;;5000946;28;20482;-69
2022/11/09 13:54:28;;;;;;;2.35;2.03;;;;;;;;;;5000544;28;20076;-69
2022/11/09 13:57:12;;;;;;;5.30;1.92;;;;;;;;;;4972959;28;20056;-69
2022/11/09 13:59:58;;;;;;;2.22;2.03;;;;;;;;;;4999398;28;20615;-71
2022/11/09 14:03:10;;;;;;;4.57;1.85;;;;;;;;;;5000011;28;20060;-70
2022/11/09 14:05:58;;;;;;;4.47;2.33;;;;;;;;;;4996973;28;20076;-69
2022/11/09 14:08:42;;;;;;;4.22;2.10;;;;;;;;;;4994293;28;20060;-70
2022/11/09 14:11:56;;;;;;;10.45;2.47;;;;;;;;;;4988818;28;20133;-70
2022/11/09 14:14:57;;;;;;;6.13;2.50;;;;;;;;;;4998447;28;20599;-69
2022/11/09 14:17:59;;;;;;;2.15;1.95;;;;;;;;;;4997515;28;20200;-69
2022/11/09 14:20:56;;;;;;;2.45;2.25;;;;;;;;;;4998717;28;20094;-68
2022/11/09 14:23:40;;;;;;;2.38;1.98;;;;;;;;;;4983185;28;20065;-70
2022/11/09 14:26:25;;;;;;;4.45;2.08;;;;;;;;;;4999077;28;20048;-68
2022/11/09 14:29:23;;;;;;;1.95;1.85;;;;;;;;;;4991725;28;20104;-68
2022/11/09 14:32:22;;;;;;;4.90;2.90;;;;;;;;;;4999978;28;20080;-68
2022/11/09 14:35:35;;;;;;;3.00;1.98;;;;;;;;;;5000377;28;20168;-69
2022/11/09 14:38:22;;;;;;;3.20;1.85;;;;;;;;;;5001274;28;20060;-69
2022/11/09 14:41:19;;;;;;;2.97;1.85;;;;;;;;;;5000794;28;20063;-70
2022/11/09 14:44:04;;;;;;;3.28;1.90;;;;;;;;;;5000241;28;20064;-70
2022/11/09 14:46:52;;;;;;;4.38;1.80;;;;;;;;;;5000325;28;20582;-71
2022/11/09 14:49:37;;;;;;;3.70;2.05;;;;;;;;;;4984414;28;20521;-69
2022/11/09 14:52:27;;;;;;;4.22;2.30;;;;;;;;;;5000984;28;20060;-68
2022/11/09 14:55:16;;;;;;;2.40;1.83;;;;;;;;;;4999645;28;20061;-68
2022/11/09 14:58:01;;;;;;;2.25;2.05;;;;;;;;;;5001026;28;20110;-73
2022/11/09 15:01:06;;;;;;;2.22;2.00;;;;;;;;;;5001285;28;20405;-68
2022/11/09 15:04:08;;;;;;;3.25;2.00;;;;;;;;;;4998459;28;20127;-72
2022/11/09 15:06:54;;;;;;;;;;;;;;;;;;5001155;28;20099;-71
2022/11/09 15:09:44;;;;;;;2.15;1.95;;;;;;;;;;4993236;28;19928;-71
2022/11/09 15:12:29;;;;;;;3.08;2.28;;;;;;;;;;5000937;28;20100;-69
2022/11/09 15:15:20;;;;;;;4.75;2.30;;;;;;;;;;4999474;28;20068;-69
2022/11/09 15:18:05;;;;;;;3.53;2.42;;;;;;;;;;5000941;28;20530;-72
2022/11/09 15:21:17;;;;;;;2.65;2.33;;;;;;;;;;5001804;28;20489;-71
2022/11/09 15:24:07;;;;;;;;;;;;;;;;;;5000230;28;20056;-69
2022/11/09 15:26:54;;;;;;;6.57;2.75;;;;;;;;;;5002541;28;20051;-69
2022/11/09 15:29:40;;;;;;;2.63;2.40;;;;;;;;;;5002075;28;20103;-69
2022/11/09 15:32:25;;;;;;;4.68;2.90;;;;;;;;;;5004011;28;20168;-73
2022/11/09 15:35:16;;;;;;;6.22;2.90;;;;;;;;;;5003017;28;20052;-72